createdAt,value
2022-08-23T00:12:58.992Z,99.99
2022-08-23T00:28:00.982Z,99.99
2022-08-23T00:43:02.782Z,99.99
2022-08-23T00:58:08.152Z,99.99
2022-08-23T01:13:11.253Z,99.98
2022-08-23T01:28:13.377Z,99.99
2022-08-23T01:43:14.753Z,99.99
2022-08-23T01:58:16.671Z,99.98
2022-08-23T02:13:17.396Z,99.48
2022-08-23T02:28:19.752Z,99.99
2022-08-23T02:43:21.151Z,99.99
2022-08-23T02:58:22.552Z,99.99
2022-08-23T03:13:23.683Z,99.99
2022-08-23T03:28:24.844Z,99.99
2022-08-23T03:43:25.897Z,99.99
2022-08-23T03:58:29.080Z,99.99
2022-08-23T04:13:30.097Z,99.99
2022-08-23T04:28:31.715Z,99.87
2022-08-23T04:43:32.626Z,99.07
2022-08-23T04:58:33.759Z,99.12
2022-08-23T05:13:34.993Z,99.38
2022-08-23T05:28:36.386Z,99.99
2022-08-23T05:43:37.325Z,99.99
2022-08-23T05:58:38.723Z,99.99
2022-08-23T06:13:38.808Z,99.99
2022-08-23T06:28:50.118Z,99.99
2022-08-23T06:43:44.610Z,99.99
2022-08-23T06:58:45.674Z,99.99
2022-08-23T07:13:46.785Z,99.23
2022-08-23T07:28:46.941Z,98.74
2022-08-23T07:43:48.516Z,97.44
2022-08-23T07:58:49.351Z,93.40
2022-08-23T08:13:51.412Z,89.40
2022-08-23T08:28:51.750Z,86.77
2022-08-23T08:43:52.883Z,87.64
2022-08-23T08:58:54.843Z,82.20
2022-08-23T09:13:55.250Z,79.63
2022-08-23T09:28:56.706Z,76.57
2022-08-23T09:43:58.263Z,72.26
2022-08-23T09:58:58.883Z,65.47
2022-08-23T10:14:00.531Z,64.97
2022-08-23T10:29:01.248Z,65.70
2022-08-23T10:44:02.373Z,59.81
2022-08-23T10:59:03.436Z,55.41
2022-08-23T11:14:04.298Z,55.70
2022-08-23T11:29:04.963Z,54.79
2022-08-23T11:44:05.935Z,57.29
2022-08-23T11:59:08.698Z,57.30
2022-08-23T12:14:10.337Z,55.44
2022-08-23T12:29:12.253Z,52.83
2022-08-23T12:44:13.765Z,55.77
2022-08-23T12:59:14.079Z,57.92
2022-08-23T13:14:15.171Z,58.83
2022-08-23T13:29:16.203Z,58.23
2022-08-23T13:44:19.225Z,58.06
2022-08-23T13:59:21.886Z,52.23
2022-08-23T14:14:24.401Z,54.40
2022-08-23T14:29:25.436Z,52.01
2022-08-23T14:44:31.437Z,56.45
2022-08-23T14:59:32.787Z,54.25
2022-08-23T15:14:35.906Z,53.70
2022-08-23T15:29:37.716Z,58.11
2022-08-23T15:44:41.816Z,58.36
2022-08-23T15:59:43.232Z,55.44
2022-08-23T16:14:44.288Z,55.74
2022-08-23T16:31:38.392Z,54.83
2022-08-23T16:46:37.627Z,56.99
2022-08-23T17:01:38.105Z,60.17
2022-08-23T17:16:38.713Z,62.64
2022-08-23T17:31:39.169Z,67.87
2022-08-23T17:46:40.362Z,71.31
2022-08-23T18:01:41.192Z,73.81
2022-08-23T18:16:41.794Z,76.41
2022-08-23T18:31:45.886Z,81.15
2022-08-23T18:46:45.935Z,85.68
2022-08-23T19:01:46.134Z,88.64
2022-08-23T19:16:48.526Z,91.94
2022-08-23T19:31:49.261Z,94.44
2022-08-23T19:46:50.546Z,97.99
2022-08-23T20:01:50.693Z,99.35
2022-08-23T20:16:50.798Z,99.99
2022-08-23T20:31:50.836Z,99.99
2022-08-23T20:46:54.329Z,99.99
2022-08-23T21:01:55.071Z,99.99
2022-08-23T21:16:55.067Z,99.99
2022-08-23T21:31:55.752Z,99.99
2022-08-23T21:46:56.769Z,99.99
2022-08-23T22:01:57.401Z,99.99
2022-08-23T22:16:57.961Z,99.99
2022-08-23T22:31:58.054Z,98.59
2022-08-23T22:46:58.154Z,99.99
2022-08-23T23:01:58.419Z,99.99
2022-08-23T23:16:59.481Z,99.99
2022-08-23T23:31:59.465Z,99.99
2022-08-23T23:46:59.605Z,98.88
